createdAt,value
2018-12-19T00:01:44.758Z,102571.73
2018-12-19T00:04:13.141Z,102574.12
2018-12-19T00:06:41.537Z,102575.83
2018-12-19T00:09:10.157Z,102572.39
2018-12-19T00:11:38.548Z,102576.61
2018-12-19T00:14:07.155Z,102569.28
2018-12-19T00:16:35.890Z,102568.37
2018-12-19T00:19:04.300Z,102568.00
2018-12-19T00:21:32.705Z,102561.05
2018-12-19T00:24:01.224Z,102563.07
2018-12-19T00:26:29.645Z,102561.41
2018-12-19T00:28:58.040Z,102562.53
2018-12-19T00:31:26.564Z,102565.67
2018-12-19T00:33:55.211Z,102569.90
2018-12-19T00:36:23.845Z,102567.54
2018-12-19T00:38:52.582Z,102562.94
2018-12-19T00:41:20.964Z,102562.37
2018-12-19T00:43:49.369Z,102556.45
2018-12-19T00:46:18.045Z,102557.69
2018-12-19T00:48:46.441Z,102562.78
2018-12-19T00:51:14.840Z,102560.02
2018-12-19T00:53:43.412Z,102554.88
2018-12-19T00:56:11.820Z,102555.75
2018-12-19T00:58:40.504Z,102557.86
2018-12-19T01:01:09.159Z,102555.17
2018-12-19T01:03:37.564Z,102556.36
2018-12-19T01:06:05.971Z,102549.31
2018-12-19T01:08:34.909Z,102542.96
2018-12-19T01:11:03.308Z,102539.91
2018-12-19T01:13:34.665Z,102539.98
2018-12-19T01:16:03.421Z,102532.76
2018-12-19T01:18:31.814Z,102525.69
2018-12-19T01:21:00.213Z,102533.88
2018-12-19T01:23:28.728Z,102529.28
2018-12-19T01:25:57.124Z,102532.70
2018-12-19T01:28:25.747Z,102528.95
2018-12-19T01:30:54.320Z,102523.38
2018-12-19T01:33:22.791Z,102528.09
2018-12-19T01:35:51.338Z,102530.23
2018-12-19T01:38:19.884Z,102534.20
2018-12-19T01:40:48.367Z,102534.67
2018-12-19T01:43:16.761Z,102526.14
2018-12-19T01:45:46.108Z,102528.06
2018-12-19T01:48:14.594Z,102531.48
2018-12-19T01:50:42.988Z,102527.35
2018-12-19T01:53:11.545Z,102530.23
2018-12-19T01:55:40.343Z,102528.20
2018-12-19T01:58:08.764Z,102533.12
2018-12-19T02:00:37.365Z,102536.77
2018-12-19T02:03:05.772Z,102535.26
2018-12-19T02:05:34.160Z,102531.56
2018-12-19T02:08:03.049Z,102524.22
2018-12-19T02:10:31.561Z,102525.28
2018-12-19T02:12:59.946Z,102528.55
2018-12-19T02:15:28.486Z,102533.09
2018-12-19T02:17:56.882Z,102532.50
2018-12-19T02:20:25.296Z,102530.23
2018-12-19T02:22:54.396Z,102526.69
2018-12-19T02:25:22.848Z,102529.80
2018-12-19T02:27:51.266Z,102519.66
2018-12-19T02:30:20.325Z,102520.03
2018-12-19T02:32:49.199Z,102517.61
2018-12-19T02:35:17.589Z,102515.73
2018-12-19T02:37:46.656Z,102514.82
2018-12-19T02:40:15.097Z,102509.30
2018-12-19T02:42:43.517Z,102516.95
2018-12-19T02:45:12.659Z,102520.59
2018-12-19T02:47:41.092Z,102527.33
2018-12-19T02:50:09.511Z,102530.06
2018-12-19T02:52:38.057Z,102532.04
2018-12-19T02:55:06.602Z,102532.19
2018-12-19T02:57:35.282Z,102534.17
2018-12-19T03:00:04.333Z,102529.17
2018-12-19T03:02:32.854Z,102525.24
2018-12-19T03:05:01.248Z,102524.11
2018-12-19T03:07:29.815Z,102527.75
2018-12-19T03:09:58.489Z,102524.95
2018-12-19T03:12:26.888Z,102531.16
2018-12-19T03:14:55.708Z,102532.60
2018-12-19T03:17:24.132Z,102533.14
2018-12-19T03:19:52.517Z,102532.60
2018-12-19T03:22:21.462Z,102529.66
2018-12-19T03:24:50.306Z,102530.19
2018-12-19T03:27:18.722Z,102497.44
2018-12-19T03:29:47.517Z,102525.34
2018-12-19T03:32:15.920Z,102528.22
2018-12-19T03:34:44.300Z,102528.00
2018-12-19T03:37:12.821Z,102526.11
2018-12-19T03:39:41.356Z,102523.91
2018-12-19T03:42:09.756Z,102524.06
2018-12-19T03:44:38.315Z,102529.37
2018-12-19T03:47:06.752Z,102525.13
2018-12-19T03:49:35.598Z,102530.80
2018-12-19T03:52:04.472Z,102521.26
2018-12-19T03:54:33.187Z,102522.70
2018-12-19T03:57:02.261Z,102516.95
2018-12-19T03:59:30.880Z,102514.30
2018-12-19T04:01:59.285Z,102508.53
2018-12-19T04:04:27.848Z,102517.33
2018-12-19T04:06:56.687Z,102508.84
2018-12-19T04:09:25.084Z,102510.28
2018-12-19T04:11:53.534Z,102510.43
2018-12-19T04:14:22.345Z,102508.00
2018-12-19T04:16:51.649Z,102509.45
2018-12-19T04:19:20.029Z,102504.83
2018-12-19T04:21:49.370Z,102500.95
2018-12-19T04:24:17.745Z,102503.16
2018-12-19T04:26:46.155Z,102503.31
2018-12-19T04:29:15.045Z,102501.64
2018-12-19T04:31:43.480Z,102495.34
2018-12-19T04:34:11.886Z,102494.97
2018-12-19T04:36:40.496Z,102492.02
2018-12-19T04:39:08.880Z,102491.25
2018-12-19T04:41:37.388Z,102495.50
2018-12-19T04:44:06.241Z,102496.03
2018-12-19T04:46:34.737Z,102496.03
2018-12-19T04:49:03.167Z,102500.42
2018-12-19T04:51:31.794Z,102497.09
2018-12-19T04:54:00.283Z,102498.53
2018-12-19T04:56:28.708Z,102493.14
2018-12-19T04:58:57.468Z,102494.05
2018-12-19T05:01:25.882Z,102494.20
2018-12-19T05:03:54.503Z,102490.48
2018-12-19T05:06:23.532Z,102498.22
2018-12-19T05:08:52.004Z,102494.88
2018-12-19T05:11:20.452Z,102502.77
2018-12-19T05:13:49.282Z,102499.58
2018-12-19T05:16:17.697Z,102497.38
2018-12-19T05:18:46.224Z,102498.06
2018-12-19T05:21:14.982Z,102498.06
2018-12-19T05:23:43.393Z,102499.34
2018-12-19T05:26:11.821Z,102496.77
2018-12-19T05:28:40.558Z,102498.44
2018-12-19T05:31:08.997Z,102497.67
2018-12-19T05:33:37.642Z,102486.45
2018-12-19T05:36:07.089Z,102494.11
2018-12-19T05:38:35.527Z,102483.42
2018-12-19T05:41:04.118Z,102483.19
2018-12-19T05:43:32.906Z,102486.83
2018-12-19T05:46:01.353Z,102483.11
2018-12-19T05:48:29.793Z,102477.72
2018-12-19T05:50:58.501Z,102486.89
2018-12-19T05:53:26.932Z,102482.80
2018-12-19T05:55:55.424Z,102476.49
2018-12-19T05:58:23.940Z,102480.51
2018-12-19T06:00:52.472Z,102486.95
2018-12-19T06:03:20.888Z,102483.61
2018-12-19T06:05:49.400Z,102478.45
2018-12-19T06:08:17.915Z,102480.28
2018-12-19T06:10:46.338Z,102485.05
2018-12-19T06:13:14.944Z,102481.33
2018-12-19T06:15:43.750Z,102478.75
2018-12-19T06:18:12.145Z,102479.81
2018-12-19T06:20:40.680Z,102486.02
2018-12-19T06:23:09.113Z,102480.11
2018-12-19T06:25:37.518Z,102480.63
2018-12-19T06:28:06.129Z,102477.26
2018-12-19T06:30:34.573Z,102483.47
2018-12-19T06:33:02.960Z,102473.69
2018-12-19T06:35:31.499Z,102485.06
2018-12-19T06:38:00.053Z,102485.59
2018-12-19T06:40:32.698Z,102485.73
2018-12-19T06:43:00.060Z,102481.09
2018-12-19T06:45:28.647Z,102479.43
2018-12-19T06:47:57.311Z,102485.27
2018-12-19T06:50:25.929Z,102478.44
2018-12-19T06:52:54.319Z,102478.58
2018-12-19T06:55:22.705Z,102478.20
2018-12-19T06:57:51.561Z,102478.48
2018-12-19T07:00:19.966Z,102483.65
2018-12-19T07:02:48.366Z,102476.44
2018-12-19T07:05:17.304Z,102475.30
2018-12-19T07:07:45.803Z,102483.95
2018-12-19T07:10:14.330Z,102478.78
2018-12-19T07:12:42.932Z,102480.22
2018-12-19T07:15:11.344Z,102482.04
2018-12-19T07:17:40.838Z,102479.98
2018-12-19T07:20:09.485Z,102484.00
2018-12-19T07:22:38.172Z,102485.81
2018-12-19T07:25:07.301Z,102484.29
2018-12-19T07:27:36.181Z,102446.28
2018-12-19T07:30:05.113Z,102481.86
2018-12-19T07:32:34.141Z,102481.23
2018-12-19T07:35:02.827Z,102489.51
2018-12-19T07:37:31.258Z,102486.31
2018-12-19T07:39:59.705Z,102483.49
2018-12-19T07:42:28.371Z,102489.33
2018-12-19T07:44:56.928Z,102484.69
2018-12-19T07:47:25.356Z,102488.70
2018-12-19T07:49:54.365Z,102487.94
2018-12-19T07:52:23.656Z,102486.41
2018-12-19T07:54:52.129Z,102489.52
2018-12-19T07:57:21.001Z,102490.58
2018-12-19T07:59:50.299Z,102488.66
2018-12-19T08:02:18.718Z,102489.72
2018-12-19T08:04:47.676Z,102490.25
2018-12-19T08:07:16.074Z,102484.56
2018-12-19T08:09:44.462Z,102475.67
2018-12-19T08:12:13.477Z,102480.20
2018-12-19T08:14:41.869Z,102480.35
2018-12-19T08:17:10.266Z,102473.38
2018-12-19T08:19:39.044Z,102477.91
2018-12-19T08:22:07.617Z,102476.77
2018-12-19T08:24:36.018Z,102479.88
2018-12-19T08:27:04.545Z,102483.89
2018-12-19T08:29:32.914Z,102485.70
2018-12-19T08:32:01.320Z,102486.86
2018-12-19T08:34:29.864Z,102483.13
2018-12-19T08:36:58.529Z,102485.85
2018-12-19T08:39:27.801Z,102488.58
2018-12-19T08:41:56.704Z,102481.22
2018-12-19T08:44:25.139Z,102490.02
2018-12-19T08:46:53.520Z,102483.17
2018-12-19T08:49:22.713Z,102479.45
2018-12-19T08:51:51.333Z,102481.41
2018-12-19T08:54:19.876Z,102481.93
2018-12-19T08:56:48.727Z,102486.33
2018-12-19T08:59:17.112Z,102484.66
2018-12-19T09:01:45.497Z,102483.13
2018-12-19T09:04:14.216Z,102472.94
2018-12-19T09:06:42.705Z,102476.05
2018-12-19T09:09:11.080Z,102478.24
2018-12-19T09:11:40.034Z,102478.77
2018-12-19T09:14:08.886Z,102479.05
2018-12-19T09:16:37.281Z,102471.69
2018-12-19T09:19:06.017Z,102473.89
2018-12-19T09:21:34.446Z,102474.03
2018-12-19T09:24:02.842Z,102470.68
2018-12-19T09:26:31.372Z,102464.75
2018-12-19T09:28:59.758Z,102461.92
2018-12-19T09:31:28.350Z,102462.97
2018-12-19T09:33:57.207Z,102462.97
2018-12-19T09:36:25.689Z,102463.11
2018-12-19T09:38:54.108Z,102455.37
2018-12-19T09:41:23.065Z,102452.92
2018-12-19T09:43:51.498Z,102453.06
2018-12-19T09:46:19.880Z,102448.95
2018-12-19T09:48:48.480Z,102447.80
2018-12-19T09:51:16.865Z,102440.57
2018-12-19T09:53:45.370Z,102437.61
2018-12-19T09:56:14.147Z,102433.48
2018-12-19T09:58:42.528Z,102432.34
2018-12-19T10:01:10.919Z,102434.15
2018-12-19T10:03:39.433Z,102440.89
2018-12-19T10:06:07.841Z,102433.66
2018-12-19T10:08:36.568Z,102431.74
2018-12-19T10:11:05.160Z,102430.06
2018-12-19T10:13:33.708Z,102434.98
2018-12-19T10:16:02.308Z,102428.28
2018-12-19T10:18:32.445Z,102433.20
2018-12-19T10:21:00.836Z,102431.91
2018-12-19T10:23:29.451Z,102434.25
2018-12-19T10:26:03.793Z,102426.88
2018-12-19T10:28:34.849Z,102425.73
2018-12-19T10:31:03.632Z,102419.80
2018-12-19T10:33:32.371Z,102415.53
2018-12-19T10:36:00.749Z,102414.90
2018-12-19T10:38:29.613Z,102415.17
2018-12-19T10:40:58.165Z,102405.89
2018-12-19T10:43:26.538Z,102403.19
2018-12-19T10:45:54.951Z,102364.45
2018-12-19T10:48:23.977Z,102401.54
2018-12-19T10:50:52.924Z,102358.55
2018-12-19T10:53:21.349Z,102389.13
2018-12-19T10:55:49.863Z,102398.31
2018-12-19T10:58:18.263Z,102383.47
2018-12-19T11:00:52.043Z,102385.42
2018-12-19T11:03:20.447Z,102389.95
2018-12-19T11:05:54.333Z,102389.70
2018-12-19T11:08:20.293Z,102385.96
2018-12-19T11:10:48.756Z,102382.22
2018-12-19T11:13:17.137Z,102382.87
2018-12-19T11:15:46.216Z,102385.73
2018-12-19T11:18:14.699Z,102384.58
2018-12-19T11:20:43.098Z,102380.19
2018-12-19T11:23:11.966Z,102378.27
2018-12-19T11:25:40.372Z,102371.55
2018-12-19T11:28:08.779Z,102372.20
2018-12-19T11:30:37.381Z,102365.73
2018-12-19T11:33:05.797Z,102372.72
2018-12-19T11:35:34.172Z,102374.78
2018-12-19T11:38:02.746Z,102374.27
2018-12-19T11:40:31.391Z,102374.65
2018-12-19T11:42:59.826Z,102381.50
2018-12-19T11:45:28.559Z,102375.17
2018-12-19T11:47:56.944Z,102375.44
2018-12-19T11:50:25.328Z,102378.93
2018-12-19T11:52:54.345Z,102370.92
2018-12-19T11:55:23.398Z,102332.08
2018-12-19T11:57:51.929Z,102369.63
2018-12-19T12:00:20.769Z,102368.86
2018-12-19T12:02:49.143Z,102373.51
2018-12-19T12:05:17.545Z,102366.00
2018-12-19T12:07:46.308Z,102368.06
2018-12-19T12:10:14.809Z,102365.34
2018-12-19T12:12:43.536Z,102364.44
2018-12-19T12:15:12.882Z,102364.05
2018-12-19T12:17:41.281Z,102357.45
2018-12-19T12:20:09.909Z,102353.83
2018-12-19T12:22:38.426Z,102352.02
2018-12-19T12:25:06.833Z,102355.77
2018-12-19T12:27:35.220Z,102358.73
2018-12-19T12:30:04.938Z,102351.61
2018-12-19T12:32:33.435Z,102358.33
2018-12-19T12:35:01.950Z,102358.84
2018-12-19T12:37:30.691Z,102357.41
2018-12-19T12:39:59.121Z,102358.95
2018-12-19T12:42:27.544Z,102357.52
2018-12-19T12:44:56.438Z,102347.82
2018-12-19T12:47:25.470Z,102346.91
2018-12-19T12:49:53.925Z,102346.78
2018-12-19T12:52:22.801Z,102343.67
2018-12-19T12:54:51.176Z,102342.25
2018-12-19T12:57:19.587Z,102337.46
2018-12-19T12:59:48.178Z,102337.46
2018-12-19T13:02:16.581Z,102336.17
2018-12-19T13:04:44.952Z,102339.66
2018-12-19T13:07:13.980Z,102335.92
2018-12-19T13:09:42.367Z,102334.87
2018-12-19T13:12:10.773Z,102333.72
2018-12-19T13:14:41.296Z,102325.58
2018-12-19T13:17:09.732Z,102328.55
2018-12-19T13:19:38.460Z,102326.88
2018-12-19T13:22:07.533Z,102315.23
2018-12-19T13:24:35.905Z,102313.95
2018-12-19T13:27:04.404Z,102303.34
2018-12-19T13:29:33.376Z,102301.27
2018-12-19T13:32:02.316Z,102298.82
2018-12-19T13:34:30.804Z,102291.31
2018-12-19T13:37:00.067Z,102273.48
2018-12-19T13:39:28.497Z,102278.13
2018-12-19T13:41:56.893Z,102284.98
2018-12-19T13:44:25.420Z,102293.50
2018-12-19T13:46:53.796Z,102292.20
2018-12-19T13:49:22.444Z,102294.27
2018-12-19T13:51:51.558Z,102288.59
2018-12-19T13:54:20.363Z,102286.00
2018-12-19T13:56:48.754Z,102284.70
2018-12-19T13:59:17.609Z,102286.13
2018-12-19T14:01:45.999Z,102283.30
2018-12-19T14:04:14.430Z,102288.08
2018-12-19T14:06:42.945Z,102280.71
2018-12-19T14:09:11.338Z,102283.05
2018-12-19T14:11:39.742Z,102283.95
2018-12-19T14:14:08.556Z,102288.34
2018-12-19T14:16:37.242Z,102282.27
2018-12-19T14:19:05.640Z,102278.14
2018-12-19T14:21:34.300Z,102279.95
2018-12-19T14:24:03.078Z,102280.34
2018-12-19T14:26:31.466Z,102281.25
2018-12-19T14:29:00.035Z,102279.95
2018-12-19T14:31:28.420Z,102281.25
2018-12-19T14:33:56.850Z,102280.73
2018-12-19T14:36:25.741Z,102277.89
2018-12-19T14:38:54.202Z,102270.52
2018-12-19T14:41:22.764Z,102269.49
2018-12-19T14:43:51.497Z,102267.30
2018-12-19T14:46:19.970Z,102272.08
2018-12-19T14:48:48.649Z,102267.69
2018-12-19T14:51:22.514Z,102264.33
2018-12-19T14:53:50.936Z,102264.33
2018-12-19T14:56:19.467Z,102263.94
2018-12-19T14:58:50.011Z,102262.25
2018-12-19T15:01:18.503Z,102253.98
2018-12-19T15:03:47.038Z,102254.50
2018-12-19T15:06:15.810Z,102246.36
2018-12-19T15:08:45.160Z,102240.03
2018-12-19T15:11:13.885Z,102235.63
2018-12-19T15:13:42.509Z,102239.25
2018-12-19T15:16:11.286Z,102242.36
2018-12-19T15:18:39.746Z,102237.70
2018-12-19T15:21:09.184Z,102247.14
2018-12-19T15:23:37.776Z,102242.88
2018-12-19T15:26:06.623Z,102244.30
2018-12-19T15:28:35.570Z,102239.65
2018-12-19T15:31:03.986Z,102236.81
2018-12-19T15:33:32.485Z,102240.81
2018-12-19T15:36:02.487Z,102237.84
2018-12-19T15:38:30.869Z,102236.69
2018-12-19T15:40:59.399Z,102238.11
2018-12-19T15:43:28.038Z,102233.84
2018-12-19T15:45:56.485Z,102238.11
2018-12-19T15:48:25.025Z,102235.13
2018-12-19T15:50:53.859Z,102233.84
2018-12-19T15:53:22.423Z,102229.45
2018-12-19T15:55:50.811Z,102237.20
2018-12-19T15:58:19.357Z,102240.44
2018-12-19T16:00:50.445Z,102237.20
2018-12-19T16:03:19.917Z,102236.81
2018-12-19T16:05:48.868Z,102234.75
2018-12-19T16:08:18.390Z,102237.85
2018-12-19T16:10:46.948Z,102228.80
2018-12-19T16:13:16.543Z,102226.60
2018-12-19T16:15:45.049Z,102229.19
2018-12-19T16:18:13.436Z,102230.48
2018-12-19T16:20:42.258Z,102230.87
2018-12-19T16:23:10.642Z,102222.47
2018-12-19T16:25:40.250Z,102222.34
2018-12-19T16:28:09.175Z,102214.84
2018-12-19T16:30:37.570Z,102217.16
2018-12-19T16:33:05.955Z,102211.61
2018-12-19T16:35:34.626Z,102212.90
2018-12-19T16:38:03.145Z,102036.56
2018-12-19T16:40:31.553Z,102195.70
2018-12-19T16:43:00.451Z,102199.70
2018-12-19T16:45:28.933Z,102195.96
2018-12-19T16:47:57.325Z,102192.98
2018-12-19T16:50:25.897Z,102200.88
2018-12-19T16:52:54.424Z,102199.58
2018-12-19T16:55:22.816Z,102199.84
2018-12-19T16:57:51.631Z,102200.23
2018-12-19T17:00:20.398Z,102202.17
2018-12-19T17:02:49.113Z,102204.89
2018-12-19T17:05:17.809Z,102024.97
2018-12-19T17:07:46.223Z,102204.76
2018-12-19T17:10:14.608Z,102203.46
2018-12-19T17:12:43.376Z,102203.20
2018-12-19T17:15:11.777Z,102198.42
2018-12-19T17:17:40.222Z,102202.81
2018-12-19T17:20:09.075Z,102196.34
2018-12-19T17:22:37.557Z,102194.66
2018-12-19T17:25:06.252Z,102190.40
2018-12-19T17:27:34.902Z,102183.16
2018-12-19T17:30:03.426Z,102179.80
2018-12-19T17:32:32.056Z,102179.53
2018-12-19T17:35:00.657Z,102176.04
2018-12-19T17:37:29.088Z,102175.91
2018-12-19T17:39:57.619Z,102175.52
2018-12-19T17:42:26.412Z,102178.11
2018-12-19T17:44:54.838Z,102184.31
2018-12-19T17:47:23.401Z,102180.05
2018-12-19T17:49:52.861Z,102184.95
2018-12-19T17:52:21.232Z,102191.16
2018-12-19T17:54:49.624Z,102183.92
2018-12-19T17:57:18.264Z,102200.86
2018-12-19T17:59:46.700Z,102182.36
2018-12-19T18:02:15.136Z,102179.52
2018-12-19T18:04:43.789Z,102186.63
2018-12-19T18:07:12.381Z,102222.08
2018-12-19T18:09:40.873Z,102184.16
2018-12-19T18:12:09.833Z,102181.45
2018-12-19T18:14:38.300Z,102179.89
2018-12-19T18:17:06.820Z,102178.99
2018-12-19T18:19:36.206Z,102182.61
2018-12-19T18:22:04.852Z,102182.61
2018-12-19T18:24:33.312Z,102184.81
2018-12-19T18:27:02.131Z,102191.28
2018-12-19T18:29:30.555Z,102188.30
2018-12-19T18:31:59.072Z,102183.13
2018-12-19T18:34:27.616Z,102181.83
2018-12-19T18:36:56.216Z,102175.75
2018-12-19T18:39:26.262Z,102029.38
2018-12-19T18:41:55.060Z,102168.64
2018-12-19T18:44:23.603Z,102167.34
2018-12-19T18:46:52.229Z,102166.56
2018-12-19T18:49:21.253Z,102158.29
2018-12-19T18:51:49.793Z,102163.47
2018-12-19T18:54:18.299Z,102159.45
2018-12-19T18:56:48.202Z,102154.28
2018-12-19T18:59:16.771Z,102155.97
2018-12-19T19:01:45.309Z,102148.33
2018-12-19T19:04:14.250Z,102152.73
2018-12-19T19:06:42.760Z,102151.05
2018-12-19T19:09:12.596Z,102154.53
2018-12-19T19:11:41.283Z,102159.45
2018-12-19T19:14:09.737Z,102156.86
2018-12-19T19:16:38.219Z,102157.89
2018-12-19T19:19:06.838Z,102154.01
2018-12-19T19:21:40.366Z,102156.72
2018-12-19T19:24:09.605Z,102152.58
2018-12-19T19:26:38.075Z,102153.09
2018-12-19T19:29:06.488Z,102151.02
2018-12-19T19:31:35.121Z,102156.32
2018-12-19T19:34:03.695Z,102154.12
2018-12-19T19:36:32.194Z,102154.64
2018-12-19T19:39:00.811Z,102150.36
2018-12-19T19:41:29.258Z,102149.59
2018-12-19T19:43:57.705Z,102150.36
2018-12-19T19:46:26.566Z,102149.84
2018-12-19T19:48:55.194Z,102146.36
2018-12-19T19:51:23.628Z,102149.46
2018-12-19T19:53:52.378Z,102142.21
2018-12-19T19:56:20.822Z,102144.67
2018-12-19T19:58:49.227Z,102140.79
2018-12-19T20:01:18.016Z,102137.30
2018-12-19T20:03:46.510Z,102138.72
2018-12-19T20:06:14.953Z,102137.30
2018-12-19T20:08:50.501Z,102137.30
2018-12-19T20:11:19.592Z,102134.32
2018-12-19T20:13:47.996Z,102131.73
2018-12-19T20:16:16.595Z,102136.52
2018-12-19T20:18:45.096Z,102131.86
2018-12-19T20:21:13.728Z,102130.44
2018-12-19T20:23:42.350Z,102135.23
2018-12-19T20:26:10.731Z,102137.81
2018-12-19T20:28:39.112Z,102129.27
2018-12-19T20:31:08.336Z,102133.94
2018-12-19T20:33:36.731Z,102132.52
2018-12-19T20:36:05.336Z,102060.30
2018-12-19T20:38:34.095Z,102129.92
2018-12-19T20:41:02.565Z,102135.23
2018-12-19T20:43:31.016Z,102133.03
2018-12-19T20:45:59.905Z,102133.16
2018-12-19T20:48:28.509Z,102130.69
2018-12-19T20:50:57.604Z,102124.73
2018-12-19T20:53:26.296Z,102120.85
2018-12-19T20:55:55.051Z,102117.87
2018-12-19T20:58:23.498Z,102119.41
2018-12-19T21:00:52.102Z,102116.05
2018-12-19T21:03:20.520Z,102116.95
2018-12-19T21:05:49.386Z,102113.97
2018-12-19T21:08:18.349Z,102111.90
2018-12-19T21:10:46.826Z,102113.31
2018-12-19T21:13:15.373Z,102119.00
2018-12-19T21:15:43.949Z,102110.45
2018-12-19T21:18:18.000Z,102117.96
2018-12-19T21:20:46.759Z,102114.20
2018-12-19T21:23:15.372Z,102112.64
2018-12-19T21:25:44.041Z,102117.42
2018-12-19T21:28:13.069Z,102031.82
2018-12-19T21:30:41.689Z,102115.86
2018-12-19T21:33:14.027Z,102107.70
2018-12-19T21:35:40.968Z,102115.86
2018-12-19T21:38:09.640Z,102114.96
2018-12-19T21:40:39.352Z,102124.41
2018-12-19T21:43:08.381Z,102124.02
2018-12-19T21:45:36.928Z,102128.81
2018-12-19T21:48:05.412Z,102121.04
2018-12-19T21:50:34.015Z,102120.66
2018-12-19T21:53:02.502Z,102116.77
2018-12-19T21:55:30.916Z,102116.38
2018-12-19T21:57:59.481Z,102116.77
2018-12-19T22:00:34.518Z,102122.46
2018-12-19T22:03:07.583Z,102109.91
2018-12-19T22:05:38.749Z,102112.10
2018-12-19T22:08:07.357Z,102107.44
2018-12-19T22:10:36.467Z,102107.17
2018-12-19T22:13:05.040Z,102107.56
2018-12-19T22:15:33.577Z,102105.24
2018-12-19T22:18:07.376Z,102109.64
2018-12-19T22:20:35.843Z,102113.13
2018-12-19T22:23:04.421Z,102115.72
2018-12-19T22:25:32.934Z,102110.55
2018-12-19T22:28:01.522Z,102113.13
2018-12-19T22:30:30.013Z,102118.70
2018-12-19T22:32:58.608Z,102125.69
2018-12-19T22:35:27.101Z,102117.80
2018-12-19T22:37:55.680Z,102120.90
2018-12-19T22:40:24.659Z,102119.09
2018-12-19T22:42:53.057Z,102125.17
2018-12-19T22:45:21.444Z,102117.67
2018-12-19T22:47:50.313Z,102125.44
2018-12-19T22:50:18.852Z,102124.14
2018-12-19T22:52:47.385Z,102128.03
2018-12-19T22:55:16.130Z,102128.94
2018-12-19T22:57:44.640Z,102124.14
2018-12-19T23:00:16.873Z,102130.62
2018-12-19T23:02:51.579Z,102136.19
2018-12-19T23:05:51.530Z,102127.00
2018-12-19T23:08:20.316Z,102127.91
2018-12-19T23:10:48.812Z,102124.29
2018-12-19T23:13:18.001Z,102121.70
2018-12-19T23:15:46.752Z,102122.48
2018-12-19T23:18:23.254Z,102120.28
2018-12-19T23:20:51.868Z,102127.66
2018-12-19T23:23:20.251Z,102120.28
2018-12-19T23:25:48.936Z,102119.38
2018-12-19T23:28:17.844Z,102121.06
2018-12-19T23:30:46.352Z,102116.28
2018-12-19T23:33:15.821Z,102117.18
2018-12-19T23:35:44.456Z,102112.91
2018-12-19T23:38:12.828Z,102073.64
2018-12-19T23:40:41.292Z,102113.69
2018-12-19T23:43:09.832Z,102111.61
2018-12-19T23:45:38.432Z,102109.92
2018-12-19T23:48:06.879Z,102104.75
2018-12-19T23:50:35.778Z,102111.34
2018-12-19T23:53:04.285Z,102105.66
2018-12-19T23:55:32.679Z,102104.75
2018-12-19T23:58:01.425Z,102100.48
